sensor_id;sensor_type;location;lat;lon;timestamp;temperature;humidity
9658;DHT22;4867;48.112;11.622;2022-11-20T00:01:14;6.20;99.90
9658;DHT22;4867;48.112;11.622;2022-11-20T00:03:42;6.20;99.90
9658;DHT22;4867;48.112;11.622;2022-11-20T00:06:11;6.20;99.90
9658;DHT22;4867;48.112;11.622;2022-11-20T00:08:39;6.20;99.90
9658;DHT22;4867;48.112;11.622;2022-11-20T00:11:17;6.20;99.90
9658;DHT22;4867;48.112;11.622;2022-11-20T00:13:45;6.30;99.90
9658;DHT22;4867;48.112;11.622;2022-11-20T00:16:15;6.30;99.90
9658;DHT22;4867;48.112;11.622;2022-11-20T00:18:44;6.30;99.90
9658;DHT22;4867;48.112;11.622;2022-11-20T00:21:17;6.30;99.90
9658;DHT22;4867;48.112;11.622;2022-11-20T00:23:44;6.40;99.90
9658;DHT22;4867;48.112;11.622;2022-11-20T00:26:14;6.30;99.90
9658;DHT22;4867;48.112;11.622;2022-11-20T00:28:43;6.40;99.90
9658;DHT22;4867;48.112;11.622;2022-11-20T00:31:13;6.40;99.90
9658;DHT22;4867;48.112;11.622;2022-11-20T00:33:41;6.40;99.90
9658;DHT22;4867;48.112;11.622;2022-11-20T00:36:14;6.40;99.90
9658;DHT22;4867;48.112;11.622;2022-11-20T00:38:42;6.40;99.90
9658;DHT22;4867;48.112;11.622;2022-11-20T00:41:12;6.40;99.90
9658;DHT22;4867;48.112;11.622;2022-11-20T00:43:39;6.40;99.90
9658;DHT22;4867;48.112;11.622;2022-11-20T00:46:15;6.40;99.90
9658;DHT22;4867;48.112;11.622;2022-11-20T00:48:43;6.40;99.90
9658;DHT22;4867;48.112;11.622;2022-11-20T00:51:13;6.40;99.90
9658;DHT22;4867;48.112;11.622;2022-11-20T00:53:41;6.40;99.90
9658;DHT22;4867;48.112;11.622;2022-11-20T00:56:11;6.40;99.90
9658;DHT22;4867;48.112;11.622;2022-11-20T00:58:41;6.40;99.90
9658;DHT22;4867;48.112;11.622;2022-11-20T01:01:14;6.40;99.90
9658;DHT22;4867;48.112;11.622;2022-11-20T01:03:44;6.40;99.90
9658;DHT22;4867;48.112;11.622;2022-11-20T01:08:44;6.40;99.90
9658;DHT22;4867;48.112;11.622;2022-11-20T01:11:15;6.40;99.90
9658;DHT22;4867;48.112;11.622;2022-11-20T01:13:44;6.40;99.90
9658;DHT22;4867;48.112;11.622;2022-11-20T01:16:16;6.30;99.90
9658;DHT22;4867;48.112;11.622;2022-11-20T01:18:46;6.30;99.90
9658;DHT22;4867;48.112;11.622;2022-11-20T01:21:25;6.30;99.90
9658;DHT22;4867;48.112;11.622;2022-11-20T01:23:52;6.30;99.90
9658;DHT22;4867;48.112;11.622;2022-11-20T01:26:23;6.30;99.90
9658;DHT22;4867;48.112;11.622;2022-11-20T01:28:51;6.30;99.90
9658;DHT22;4867;48.112;11.622;2022-11-20T01:31:21;6.30;99.90
9658;DHT22;4867;48.112;11.622;2022-11-20T01:33:51;6.30;99.90
9658;DHT22;4867;48.112;11.622;2022-11-20T01:36:20;6.30;99.90
9658;DHT22;4867;48.112;11.622;2022-11-20T01:38:51;6.30;99.90
9658;DHT22;4867;48.112;11.622;2022-11-20T01:41:20;6.30;99.90
9658;DHT22;4867;48.112;11.622;2022-11-20T01:44:06;6.20;99.90
9658;DHT22;4867;48.112;11.622;2022-11-20T01:46:36;6.30;99.90
9658;DHT22;4867;48.112;11.622;2022-11-20T01:51:44;6.30;99.90
9658;DHT22;4867;48.112;11.622;2022-11-20T01:54:17;6.30;99.90
9658;DHT22;4867;48.112;11.622;2022-11-20T01:56:48;6.30;99.90
9658;DHT22;4867;48.112;11.622;2022-11-20T01:59:18;6.30;99.90
9658;DHT22;4867;48.112;11.622;2022-11-20T02:01:47;6.20;99.90
9658;DHT22;4867;48.112;11.622;2022-11-20T02:04:14;6.40;99.90
9658;DHT22;4867;48.112;11.622;2022-11-20T02:06:48;6.30;99.90
9658;DHT22;4867;48.112;11.622;2022-11-20T02:09:17;6.30;99.90
9658;DHT22;4867;48.112;11.622;2022-11-20T02:11:44;6.30;99.90
9658;DHT22;4867;48.112;11.622;2022-11-20T02:14:12;6.30;99.90
9658;DHT22;4867;48.112;11.622;2022-11-20T02:16:45;6.20;99.90
9658;DHT22;4867;48.112;11.622;2022-11-20T02:19:29;6.20;99.90
9658;DHT22;4867;48.112;11.622;2022-11-20T02:22:18;6.20;99.90
9658;DHT22;4867;48.112;11.622;2022-11-20T02:24:49;6.20;99.90
9658;DHT22;4867;48.112;11.622;2022-11-20T02:27:18;6.40;99.90
9658;DHT22;4867;48.112;11.622;2022-11-20T02:29:56;6.20;99.90
9658;DHT22;4867;48.112;11.622;2022-11-20T02:32:30;6.20;99.90
9658;DHT22;4867;48.112;11.622;2022-11-20T02:35:06;6.20;99.90
9658;DHT22;4867;48.112;11.622;2022-11-20T02:37:36;6.10;99.90
9658;DHT22;4867;48.112;11.622;2022-11-20T02:40:04;6.10;99.90
9658;DHT22;4867;48.112;11.622;2022-11-20T02:42:31;6.10;99.90
9658;DHT22;4867;48.112;11.622;2022-11-20T02:44:58;6.00;99.90
9658;DHT22;4867;48.112;11.622;2022-11-20T02:47:26;6.00;99.90
9658;DHT22;4867;48.112;11.622;2022-11-20T02:49:53;6.00;99.90
9658;DHT22;4867;48.112;11.622;2022-11-20T02:52:20;6.00;99.90
9658;DHT22;4867;48.112;11.622;2022-11-20T02:54:47;6.00;99.90
9658;DHT22;4867;48.112;11.622;2022-11-20T02:57:15;6.00;99.90
9658;DHT22;4867;48.112;11.622;2022-11-20T02:59:42;6.00;99.90
9658;DHT22;4867;48.112;11.622;2022-11-20T03:02:09;6.10;99.90
9658;DHT22;4867;48.112;11.622;2022-11-20T03:04:36;6.10;99.90
9658;DHT22;4867;48.112;11.622;2022-11-20T03:07:04;6.10;99.90
9658;DHT22;4867;48.112;11.622;2022-11-20T03:09:32;6.10;99.90
9658;DHT22;4867;48.112;11.622;2022-11-20T03:11:59;6.10;99.90
9658;DHT22;4867;48.112;11.622;2022-11-20T03:14:27;6.00;99.90
9658;DHT22;4867;48.112;11.622;2022-11-20T03:16:55;6.10;99.90
9658;DHT22;4867;48.112;11.622;2022-11-20T03:19:23;6.00;99.90
9658;DHT22;4867;48.112;11.622;2022-11-20T03:21:50;6.00;99.90
9658;DHT22;4867;48.112;11.622;2022-11-20T03:24:17;6.00;99.90
9658;DHT22;4867;48.112;11.622;2022-11-20T03:26:44;6.00;99.90
9658;DHT22;4867;48.112;11.622;2022-11-20T03:29:12;6.10;99.90
9658;DHT22;4867;48.112;11.622;2022-11-20T03:31:40;6.10;99.90
9658;DHT22;4867;48.112;11.622;2022-11-20T03:34:09;6.00;99.90
9658;DHT22;4867;48.112;11.622;2022-11-20T03:36:41;6.00;99.90
9658;DHT22;4867;48.112;11.622;2022-11-20T03:39:09;6.00;99.90
9658;DHT22;4867;48.112;11.622;2022-11-20T03:41:39;6.00;99.90
9658;DHT22;4867;48.112;11.622;2022-11-20T03:44:08;6.00;99.90
9658;DHT22;4867;48.112;11.622;2022-11-20T03:46:36;6.10;99.90
9658;DHT22;4867;48.112;11.622;2022-11-20T03:49:04;6.10;99.90
9658;DHT22;4867;48.112;11.622;2022-11-20T03:51:33;6.10;99.90
9658;DHT22;4867;48.112;11.622;2022-11-20T03:54:07;6.00;99.90
9658;DHT22;4867;48.112;11.622;2022-11-20T03:56:37;6.10;99.90
9658;DHT22;4867;48.112;11.622;2022-11-20T03:59:05;6.10;99.90
9658;DHT22;4867;48.112;11.622;2022-11-20T04:01:35;6.10;99.90
9658;DHT22;4867;48.112;11.622;2022-11-20T04:04:03;6.10;99.90
9658;DHT22;4867;48.112;11.622;2022-11-20T04:06:34;6.00;99.90
9658;DHT22;4867;48.112;11.622;2022-11-20T04:09:02;6.00;99.90
9658;DHT22;4867;48.112;11.622;2022-11-20T04:11:31;6.00;99.90
9658;DHT22;4867;48.112;11.622;2022-11-20T04:14:01;6.00;99.90
9658;DHT22;4867;48.112;11.622;2022-11-20T04:16:31;6.00;99.90
9658;DHT22;4867;48.112;11.622;2022-11-20T04:19:00;6.00;99.90
9658;DHT22;4867;48.112;11.622;2022-11-20T04:21:29;6.00;99.90
9658;DHT22;4867;48.112;11.622;2022-11-20T04:23:57;6.10;99.90
9658;DHT22;4867;48.112;11.622;2022-11-20T04:26:26;6.00;99.90
9658;DHT22;4867;48.112;11.622;2022-11-20T04:28:54;6.10;99.90
9658;DHT22;4867;48.112;11.622;2022-11-20T04:31:24;6.00;99.90
9658;DHT22;4867;48.112;11.622;2022-11-20T04:33:52;6.00;99.90
9658;DHT22;4867;48.112;11.622;2022-11-20T04:36:24;6.10;99.90
9658;DHT22;4867;48.112;11.622;2022-11-20T04:38:56;6.10;99.90
9658;DHT22;4867;48.112;11.622;2022-11-20T04:41:26;6.10;99.90
9658;DHT22;4867;48.112;11.622;2022-11-20T04:43:56;6.10;99.90
9658;DHT22;4867;48.112;11.622;2022-11-20T04:46:27;6.10;99.90
9658;DHT22;4867;48.112;11.622;2022-11-20T04:48:55;6.10;99.90
9658;DHT22;4867;48.112;11.622;2022-11-20T04:51:22;6.10;99.90
9658;DHT22;4867;48.112;11.622;2022-11-20T04:53:50;6.10;99.90
9658;DHT22;4867;48.112;11.622;2022-11-20T04:56:17;6.10;99.90
9658;DHT22;4867;48.112;11.622;2022-11-20T04:58:44;6.00;99.90
9658;DHT22;4867;48.112;11.622;2022-11-20T05:01:14;6.00;99.90
9658;DHT22;4867;48.112;11.622;2022-11-20T05:03:43;6.00;99.90
9658;DHT22;4867;48.112;11.622;2022-11-20T05:06:12;6.10;99.90
9658;DHT22;4867;48.112;11.622;2022-11-20T05:08:40;6.00;99.90
9658;DHT22;4867;48.112;11.622;2022-11-20T05:11:10;6.10;99.90
9658;DHT22;4867;48.112;11.622;2022-11-20T05:13:39;6.00;99.90
9658;DHT22;4867;48.112;11.622;2022-11-20T05:16:08;6.00;99.90
9658;DHT22;4867;48.112;11.622;2022-11-20T05:18:36;6.00;99.90
9658;DHT22;4867;48.112;11.622;2022-11-20T05:21:04;6.00;99.90
9658;DHT22;4867;48.112;11.622;2022-11-20T05:23:32;6.00;99.90
9658;DHT22;4867;48.112;11.622;2022-11-20T05:26:00;6.00;99.90
9658;DHT22;4867;48.112;11.622;2022-11-20T05:28:29;6.00;99.90
9658;DHT22;4867;48.112;11.622;2022-11-20T05:31:07;5.90;99.90
9658;DHT22;4867;48.112;11.622;2022-11-20T05:33:35;5.90;99.90
9658;DHT22;4867;48.112;11.622;2022-11-20T05:36:03;6.00;99.90
9658;DHT22;4867;48.112;11.622;2022-11-20T05:38:31;6.00;99.90
9658;DHT22;4867;48.112;11.622;2022-11-20T05:41:05;5.90;99.90
9658;DHT22;4867;48.112;11.622;2022-11-20T05:43:37;5.90;99.90
9658;DHT22;4867;48.112;11.622;2022-11-20T05:46:06;5.90;99.90
9658;DHT22;4867;48.112;11.622;2022-11-20T05:48:35;5.90;99.90
9658;DHT22;4867;48.112;11.622;2022-11-20T05:51:04;5.90;99.90
9658;DHT22;4867;48.112;11.622;2022-11-20T05:53:32;6.00;99.90
9658;DHT22;4867;48.112;11.622;2022-11-20T05:56:01;6.00;99.90
9658;DHT22;4867;48.112;11.622;2022-11-20T05:58:30;6.00;99.90
9658;DHT22;4867;48.112;11.622;2022-11-20T06:01:13;6.00;99.90
9658;DHT22;4867;48.112;11.622;2022-11-20T06:03:41;6.00;99.90
9658;DHT22;4867;48.112;11.622;2022-11-20T06:06:10;6.00;99.90
9658;DHT22;4867;48.112;11.622;2022-11-20T06:08:37;6.00;99.90
9658;DHT22;4867;48.112;11.622;2022-11-20T06:11:06;6.00;99.90
9658;DHT22;4867;48.112;11.622;2022-11-20T06:13:34;6.00;99.90
9658;DHT22;4867;48.112;11.622;2022-11-20T06:16:08;6.00;99.90
9658;DHT22;4867;48.112;11.622;2022-11-20T06:18:36;5.90;99.90
9658;DHT22;4867;48.112;11.622;2022-11-20T06:21:12;5.90;99.90
9658;DHT22;4867;48.112;11.622;2022-11-20T06:23:40;5.80;99.90
9658;DHT22;4867;48.112;11.622;2022-11-20T06:26:13;5.80;99.90
9658;DHT22;4867;48.112;11.622;2022-11-20T06:28:41;5.80;99.90
9658;DHT22;4867;48.112;11.622;2022-11-20T06:31:11;5.70;99.90
9658;DHT22;4867;48.112;11.622;2022-11-20T06:33:39;5.70;99.90
9658;DHT22;4867;48.112;11.622;2022-11-20T06:36:06;5.60;99.90
9658;DHT22;4867;48.112;11.622;2022-11-20T06:38:37;5.60;99.90
9658;DHT22;4867;48.112;11.622;2022-11-20T06:41:10;5.50;99.90
9658;DHT22;4867;48.112;11.622;2022-11-20T06:43:38;5.50;99.90
9658;DHT22;4867;48.112;11.622;2022-11-20T06:46:05;5.50;99.90
9658;DHT22;4867;48.112;11.622;2022-11-20T06:48:33;5.50;99.90
9658;DHT22;4867;48.112;11.622;2022-11-20T06:51:03;5.50;99.90
9658;DHT22;4867;48.112;11.622;2022-11-20T06:53:30;5.50;99.90
9658;DHT22;4867;48.112;11.622;2022-11-20T06:55:57;5.50;99.90
9658;DHT22;4867;48.112;11.622;2022-11-20T06:58:29;5.50;99.90
9658;DHT22;4867;48.112;11.622;2022-11-20T07:01:06;5.50;99.90
9658;DHT22;4867;48.112;11.622;2022-11-20T07:03:34;5.60;99.90
9658;DHT22;4867;48.112;11.622;2022-11-20T07:06:02;5.70;99.90
9658;DHT22;4867;48.112;11.622;2022-11-20T07:08:30;5.70;99.90
9658;DHT22;4867;48.112;11.622;2022-11-20T07:11:02;5.70;99.90
9658;DHT22;4867;48.112;11.622;2022-11-20T07:13:29;5.70;99.90
9658;DHT22;4867;48.112;11.622;2022-11-20T07:16:06;5.70;99.90
9658;DHT22;4867;48.112;11.622;2022-11-20T07:18:34;5.80;99.90
9658;DHT22;4867;48.112;11.622;2022-11-20T07:21:08;5.80;99.90
9658;DHT22;4867;48.112;11.622;2022-11-20T07:23:37;5.80;99.90
9658;DHT22;4867;48.112;11.622;2022-11-20T07:26:09;5.90;99.90
9658;DHT22;4867;48.112;11.622;2022-11-20T07:28:37;5.90;99.90
9658;DHT22;4867;48.112;11.622;2022-11-20T07:31:05;5.90;99.90
9658;DHT22;4867;48.112;11.622;2022-11-20T07:33:34;6.00;99.90
9658;DHT22;4867;48.112;11.622;2022-11-20T07:36:01;6.00;99.90
9658;DHT22;4867;48.112;11.622;2022-11-20T07:38:28;6.00;99.90
9658;DHT22;4867;48.112;11.622;2022-11-20T07:40:56;6.10;99.90
9658;DHT22;4867;48.112;11.622;2022-11-20T07:43:30;6.00;99.90
9658;DHT22;4867;48.112;11.622;2022-11-20T07:46:01;6.00;99.90
9658;DHT22;4867;48.112;11.622;2022-11-20T07:48:28;6.10;99.90
9658;DHT22;4867;48.112;11.622;2022-11-20T07:50:56;6.10;99.90
9658;DHT22;4867;48.112;11.622;2022-11-20T07:53:24;6.10;99.90
9658;DHT22;4867;48.112;11.622;2022-11-20T07:55:51;6.30;99.90
9658;DHT22;4867;48.112;11.622;2022-11-20T07:58:20;6.20;99.90
9658;DHT22;4867;48.112;11.622;2022-11-20T08:00:47;6.30;99.90
9658;DHT22;4867;48.112;11.622;2022-11-20T08:03:15;6.40;99.90
9658;DHT22;4867;48.112;11.622;2022-11-20T08:05:50;6.30;99.90
9658;DHT22;4867;48.112;11.622;2022-11-20T08:08:17;6.40;99.90
9658;DHT22;4867;48.112;11.622;2022-11-20T08:10:44;6.40;99.90
9658;DHT22;4867;48.112;11.622;2022-11-20T08:13:12;6.40;99.90
9658;DHT22;4867;48.112;11.622;2022-11-20T08:15:58;6.40;99.90
9658;DHT22;4867;48.112;11.622;2022-11-20T08:18:25;6.40;99.90
9658;DHT22;4867;48.112;11.622;2022-11-20T08:21:02;6.40;99.90
9658;DHT22;4867;48.112;11.622;2022-11-20T08:23:31;6.40;99.90
9658;DHT22;4867;48.112;11.622;2022-11-20T08:25:58;6.50;99.90
9658;DHT22;4867;48.112;11.622;2022-11-20T08:28:25;6.50;99.90
9658;DHT22;4867;48.112;11.622;2022-11-20T08:31:01;6.60;99.90
9658;DHT22;4867;48.112;11.622;2022-11-20T08:33:29;6.50;99.90
9658;DHT22;4867;48.112;11.622;2022-11-20T08:36:00;6.60;99.90
9658;DHT22;4867;48.112;11.622;2022-11-20T08:38:28;6.60;99.90
9658;DHT22;4867;48.112;11.622;2022-11-20T08:41:00;6.60;99.90
9658;DHT22;4867;48.112;11.622;2022-11-20T08:43:46;6.60;99.90
9658;DHT22;4867;48.112;11.622;2022-11-20T08:46:13;6.70;99.90
9658;DHT22;4867;48.112;11.622;2022-11-20T08:48:41;6.80;99.90
9658;DHT22;4867;48.112;11.622;2022-11-20T08:51:08;6.80;99.90
9658;DHT22;4867;48.112;11.622;2022-11-20T08:53:37;6.90;99.90
9658;DHT22;4867;48.112;11.622;2022-11-20T08:56:04;7.00;99.90
9658;DHT22;4867;48.112;11.622;2022-11-20T08:58:31;7.00;99.90
9658;DHT22;4867;48.112;11.622;2022-11-20T09:01:20;7.10;99.90
9658;DHT22;4867;48.112;11.622;2022-11-20T09:03:48;7.20;99.90
9658;DHT22;4867;48.112;11.622;2022-11-20T09:06:15;7.10;99.90
9658;DHT22;4867;48.112;11.622;2022-11-20T09:08:43;7.10;99.90
9658;DHT22;4867;48.112;11.622;2022-11-20T09:11:10;7.10;99.90
9658;DHT22;4867;48.112;11.622;2022-11-20T09:13:37;7.20;99.90
9658;DHT22;4867;48.112;11.622;2022-11-20T09:16:07;7.20;99.90
9658;DHT22;4867;48.112;11.622;2022-11-20T09:18:35;7.20;99.90
9658;DHT22;4867;48.112;11.622;2022-11-20T09:21:09;7.20;99.90
9658;DHT22;4867;48.112;11.622;2022-11-20T09:23:38;7.20;99.90
9658;DHT22;4867;48.112;11.622;2022-11-20T09:26:08;7.20;99.90
9658;DHT22;4867;48.112;11.622;2022-11-20T09:28:36;7.30;99.90
9658;DHT22;4867;48.112;11.622;2022-11-20T09:31:07;7.40;99.90
9658;DHT22;4867;48.112;11.622;2022-11-20T09:33:35;7.40;99.90
9658;DHT22;4867;48.112;11.622;2022-11-20T09:36:02;7.40;99.90
9658;DHT22;4867;48.112;11.622;2022-11-20T09:38:30;7.50;99.90
9658;DHT22;4867;48.112;11.622;2022-11-20T09:41:03;7.50;99.90
9658;DHT22;4867;48.112;11.622;2022-11-20T09:47:02;7.70;99.90
9658;DHT22;4867;48.112;11.622;2022-11-20T09:52:31;7.80;99.90
9658;DHT22;4867;48.112;11.622;2022-11-20T09:55:02;7.90;99.90
9658;DHT22;4867;48.112;11.622;2022-11-20T09:57:36;7.90;99.90
9658;DHT22;4867;48.112;11.622;2022-11-20T10:00:05;7.90;99.90
9658;DHT22;4867;48.112;11.622;2022-11-20T10:02:47;8.00;99.90
9658;DHT22;4867;48.112;11.622;2022-11-20T10:10:43;8.20;99.90
9658;DHT22;4867;48.112;11.622;2022-11-20T10:13:20;8.30;99.90
9658;DHT22;4867;48.112;11.622;2022-11-20T10:16:49;8.30;99.90
9658;DHT22;4867;48.112;11.622;2022-11-20T10:24:33;8.30;99.90
9658;DHT22;4867;48.112;11.622;2022-11-20T10:27:38;8.50;99.90
9658;DHT22;4867;48.112;11.622;2022-11-20T10:30:11;8.50;99.90
9658;DHT22;4867;48.112;11.622;2022-11-20T10:32:41;8.60;99.90
9658;DHT22;4867;48.112;11.622;2022-11-20T10:37:53;8.70;99.90
9658;DHT22;4867;48.112;11.622;2022-11-20T10:40:31;8.70;99.90
9658;DHT22;4867;48.112;11.622;2022-11-20T10:43:18;8.80;99.90
9658;DHT22;4867;48.112;11.622;2022-11-20T10:45:55;8.80;99.90
9658;DHT22;4867;48.112;11.622;2022-11-20T10:48:26;8.90;99.90
9658;DHT22;4867;48.112;11.622;2022-11-20T10:51:18;8.90;99.90
9658;DHT22;4867;48.112;11.622;2022-11-20T10:54:15;8.80;99.90
9658;DHT22;4867;48.112;11.622;2022-11-20T10:56:52;8.80;99.90
9658;DHT22;4867;48.112;11.622;2022-11-20T10:59:41;8.90;99.90
9658;DHT22;4867;48.112;11.622;2022-11-20T11:02:23;9.00;99.90
9658;DHT22;4867;48.112;11.622;2022-11-20T11:04:54;9.00;99.90
9658;DHT22;4867;48.112;11.622;2022-11-20T11:07:33;8.90;99.90
9658;DHT22;4867;48.112;11.622;2022-11-20T11:12:45;8.80;99.90
9658;DHT22;4867;48.112;11.622;2022-11-20T11:15:39;8.70;99.90
9658;DHT22;4867;48.112;11.622;2022-11-20T11:18:11;8.60;99.90
9658;DHT22;4867;48.112;11.622;2022-11-20T11:20:38;8.60;99.90
9658;DHT22;4867;48.112;11.622;2022-11-20T11:25:58;8.60;99.90
9658;DHT22;4867;48.112;11.622;2022-11-20T11:28:26;8.60;99.90
9658;DHT22;4867;48.112;11.622;2022-11-20T11:30:55;8.70;99.90
9658;DHT22;4867;48.112;11.622;2022-11-20T11:33:28;8.80;99.90
9658;DHT22;4867;48.112;11.622;2022-11-20T11:35:58;8.80;99.90
9658;DHT22;4867;48.112;11.622;2022-11-20T11:38:35;8.80;99.90
9658;DHT22;4867;48.112;11.622;2022-11-20T11:41:05;8.90;99.90
9658;DHT22;4867;48.112;11.622;2022-11-20T11:43:34;8.90;99.90
9658;DHT22;4867;48.112;11.622;2022-11-20T11:46:34;8.90;99.90
9658;DHT22;4867;48.112;11.622;2022-11-20T11:51:53;8.90;99.90
9658;DHT22;4867;48.112;11.622;2022-11-20T11:54:37;9.00;99.90
9658;DHT22;4867;48.112;11.622;2022-11-20T11:57:20;8.90;99.90
9658;DHT22;4867;48.112;11.622;2022-11-20T12:00:08;8.70;99.90
9658;DHT22;4867;48.112;11.622;2022-11-20T12:05:39;8.70;99.90
9658;DHT22;4867;48.112;11.622;2022-11-20T12:13:58;8.70;99.90
9658;DHT22;4867;48.112;11.622;2022-11-20T12:16:35;8.70;99.90
9658;DHT22;4867;48.112;11.622;2022-11-20T12:19:11;8.50;99.90
9658;DHT22;4867;48.112;11.622;2022-11-20T12:21:56;8.50;99.90
9658;DHT22;4867;48.112;11.622;2022-11-20T12:30:19;7.70;99.90
9658;DHT22;4867;48.112;11.622;2022-11-20T12:33:12;7.60;99.90
9658;DHT22;4867;48.112;11.622;2022-11-20T12:35:49;7.50;99.90
9658;DHT22;4867;48.112;11.622;2022-11-20T12:44:16;7.30;99.90
9658;DHT22;4867;48.112;11.622;2022-11-20T12:52:57;7.30;99.90
9658;DHT22;4867;48.112;11.622;2022-11-20T12:58:29;7.30;99.90
9658;DHT22;4867;48.112;11.622;2022-11-20T13:07:11;7.30;99.90
9658;DHT22;4867;48.112;11.622;2022-11-20T13:09:46;7.30;99.90
9658;DHT22;4867;48.112;11.622;2022-11-20T13:20:20;7.30;99.90
9658;DHT22;4867;48.112;11.622;2022-11-20T13:22:49;7.30;99.90
9658;DHT22;4867;48.112;11.622;2022-11-20T13:25:37;7.30;99.90
9658;DHT22;4867;48.112;11.622;2022-11-20T13:28:26;7.30;99.90
9658;DHT22;4867;48.112;11.622;2022-11-20T13:30:55;7.20;99.90
9658;DHT22;4867;48.112;11.622;2022-11-20T13:33:32;7.20;99.90
9658;DHT22;4867;48.112;11.622;2022-11-20T13:36:19;7.20;99.90
9658;DHT22;4867;48.112;11.622;2022-11-20T13:38:49;7.10;99.90
9658;DHT22;4867;48.112;11.622;2022-11-20T13:41:36;7.00;99.90
9658;DHT22;4867;48.112;11.622;2022-11-20T13:44:13;7.00;99.90
9658;DHT22;4867;48.112;11.622;2022-11-20T13:46:46;7.00;99.90
9658;DHT22;4867;48.112;11.622;2022-11-20T13:49:38;7.00;99.90
9658;DHT22;4867;48.112;11.622;2022-11-20T13:52:42;7.00;99.90
9658;DHT22;4867;48.112;11.622;2022-11-20T13:55:43;7.00;99.90
9658;DHT22;4867;48.112;11.622;2022-11-20T14:01:28;7.10;99.90
9658;DHT22;4867;48.112;11.622;2022-11-20T14:03:57;7.10;99.90
9658;DHT22;4867;48.112;11.622;2022-11-20T14:06:40;7.10;99.90
9658;DHT22;4867;48.112;11.622;2022-11-20T14:09:32;7.10;99.90
9658;DHT22;4867;48.112;11.622;2022-11-20T14:12:00;7.10;99.90
9658;DHT22;4867;48.112;11.622;2022-11-20T14:14:29;7.00;99.90
9658;DHT22;4867;48.112;11.622;2022-11-20T14:17:22;7.00;99.90
9658;DHT22;4867;48.112;11.622;2022-11-20T14:19:51;7.00;99.90
9658;DHT22;4867;48.112;11.622;2022-11-20T14:22:26;7.00;99.90
9658;DHT22;4867;48.112;11.622;2022-11-20T14:27:35;7.10;99.90
9658;DHT22;4867;48.112;11.622;2022-11-20T14:30:04;7.10;99.90
9658;DHT22;4867;48.112;11.622;2022-11-20T14:32:32;7.10;99.90
9658;DHT22;4867;48.112;11.622;2022-11-20T14:35:09;7.20;99.90
9658;DHT22;4867;48.112;11.622;2022-11-20T14:37:41;7.10;99.90
9658;DHT22;4867;48.112;11.622;2022-11-20T14:42:54;7.10;99.90
9658;DHT22;4867;48.112;11.622;2022-11-20T14:45:22;7.10;99.90
9658;DHT22;4867;48.112;11.622;2022-11-20T14:47:55;7.20;99.90
9658;DHT22;4867;48.112;11.622;2022-11-20T14:50:26;7.10;99.90
9658;DHT22;4867;48.112;11.622;2022-11-20T14:52:56;7.00;99.90
9658;DHT22;4867;48.112;11.622;2022-11-20T14:55:31;7.00;99.90
9658;DHT22;4867;48.112;11.622;2022-11-20T14:58:03;7.00;99.90
9658;DHT22;4867;48.112;11.622;2022-11-20T15:00:32;7.00;99.90
9658;DHT22;4867;48.112;11.622;2022-11-20T15:03:00;6.90;99.90
9658;DHT22;4867;48.112;11.622;2022-11-20T15:05:48;6.90;99.90
9658;DHT22;4867;48.112;11.622;2022-11-20T15:08:17;6.90;99.90
9658;DHT22;4867;48.112;11.622;2022-11-20T15:10:51;6.90;99.90
9658;DHT22;4867;48.112;11.622;2022-11-20T15:13:30;6.80;99.90
9658;DHT22;4867;48.112;11.622;2022-11-20T15:16:00;6.80;99.90
9658;DHT22;4867;48.112;11.622;2022-11-20T15:18:38;6.70;99.90
9658;DHT22;4867;48.112;11.622;2022-11-20T15:21:11;6.80;99.90
9658;DHT22;4867;48.112;11.622;2022-11-20T15:23:39;6.80;99.90
9658;DHT22;4867;48.112;11.622;2022-11-20T15:26:07;6.80;99.90
9658;DHT22;4867;48.112;11.622;2022-11-20T15:28:46;6.70;99.90
9658;DHT22;4867;48.112;11.622;2022-11-20T15:31:20;6.80;99.90
9658;DHT22;4867;48.112;11.622;2022-11-20T15:33:48;6.80;99.90
9658;DHT22;4867;48.112;11.622;2022-11-20T15:36:15;6.80;99.90
9658;DHT22;4867;48.112;11.622;2022-11-20T15:38:42;6.80;99.90
9658;DHT22;4867;48.112;11.622;2022-11-20T15:41:09;6.80;99.90
9658;DHT22;4867;48.112;11.622;2022-11-20T15:43:37;6.80;99.90
9658;DHT22;4867;48.112;11.622;2022-11-20T15:46:10;6.70;99.90
9658;DHT22;4867;48.112;11.622;2022-11-20T15:48:41;6.70;99.90
9658;DHT22;4867;48.112;11.622;2022-11-20T15:51:37;6.70;99.90
9658;DHT22;4867;48.112;11.622;2022-11-20T15:54:12;6.60;99.90
9658;DHT22;4867;48.112;11.622;2022-11-20T15:56:40;6.60;99.90
9658;DHT22;4867;48.112;11.622;2022-11-20T15:59:07;6.50;99.90
9658;DHT22;4867;48.112;11.622;2022-11-20T16:01:35;6.40;99.90
9658;DHT22;4867;48.112;11.622;2022-11-20T16:04:04;6.30;99.90
9658;DHT22;4867;48.112;11.622;2022-11-20T16:06:31;6.20;99.90
9658;DHT22;4867;48.112;11.622;2022-11-20T16:08:59;6.20;99.90
9658;DHT22;4867;48.112;11.622;2022-11-20T16:11:26;6.20;99.90
9658;DHT22;4867;48.112;11.622;2022-11-20T16:13:53;6.10;99.90
9658;DHT22;4867;48.112;11.622;2022-11-20T16:16:39;6.00;99.90
9658;DHT22;4867;48.112;11.622;2022-11-20T16:19:12;6.00;99.90
9658;DHT22;4867;48.112;11.622;2022-11-20T16:21:40;5.90;99.90
9658;DHT22;4867;48.112;11.622;2022-11-20T16:24:10;5.90;99.90
9658;DHT22;4867;48.112;11.622;2022-11-20T16:26:40;5.90;99.90
9658;DHT22;4867;48.112;11.622;2022-11-20T16:29:08;5.90;99.90
9658;DHT22;4867;48.112;11.622;2022-11-20T16:31:36;5.80;99.90
9658;DHT22;4867;48.112;11.622;2022-11-20T16:34:05;5.80;99.90
9658;DHT22;4867;48.112;11.622;2022-11-20T16:36:42;5.70;99.90
9658;DHT22;4867;48.112;11.622;2022-11-20T16:39:10;5.70;99.90
9658;DHT22;4867;48.112;11.622;2022-11-20T16:41:38;5.70;99.90
9658;DHT22;4867;48.112;11.622;2022-11-20T16:44:08;5.60;99.90
9658;DHT22;4867;48.112;11.622;2022-11-20T16:46:36;5.60;99.90
9658;DHT22;4867;48.112;11.622;2022-11-20T16:49:06;5.60;99.90
9658;DHT22;4867;48.112;11.622;2022-11-20T16:51:36;5.60;99.90
9658;DHT22;4867;48.112;11.622;2022-11-20T16:54:05;5.60;99.90
9658;DHT22;4867;48.112;11.622;2022-11-20T16:56:33;5.50;99.90
9658;DHT22;4867;48.112;11.622;2022-11-20T16:59:00;5.50;99.90
9658;DHT22;4867;48.112;11.622;2022-11-20T17:01:29;5.50;99.90
9658;DHT22;4867;48.112;11.622;2022-11-20T17:03:59;5.50;99.90
9658;DHT22;4867;48.112;11.622;2022-11-20T17:06:32;5.50;99.90
9658;DHT22;4867;48.112;11.622;2022-11-20T17:09:00;5.50;99.90
9658;DHT22;4867;48.112;11.622;2022-11-20T17:11:27;5.50;99.90
9658;DHT22;4867;48.112;11.622;2022-11-20T17:13:56;5.40;99.90
9658;DHT22;4867;48.112;11.622;2022-11-20T17:16:24;5.40;99.90
9658;DHT22;4867;48.112;11.622;2022-11-20T17:18:56;5.40;99.90
9658;DHT22;4867;48.112;11.622;2022-11-20T17:21:32;5.30;99.90
9658;DHT22;4867;48.112;11.622;2022-11-20T17:24:05;5.30;99.90
9658;DHT22;4867;48.112;11.622;2022-11-20T17:26:33;5.20;99.90
9658;DHT22;4867;48.112;11.622;2022-11-20T17:29:07;5.20;99.90
9658;DHT22;4867;48.112;11.622;2022-11-20T17:31:36;5.20;99.90
9658;DHT22;4867;48.112;11.622;2022-11-20T17:34:06;5.10;99.90
9658;DHT22;4867;48.112;11.622;2022-11-20T17:36:33;5.10;99.90
9658;DHT22;4867;48.112;11.622;2022-11-20T17:39:01;5.00;99.90
9658;DHT22;4867;48.112;11.622;2022-11-20T17:41:28;4.90;99.90
9658;DHT22;4867;48.112;11.622;2022-11-20T17:43:58;4.90;99.90
9658;DHT22;4867;48.112;11.622;2022-11-20T17:46:27;4.90;99.90
9658;DHT22;4867;48.112;11.622;2022-11-20T17:48:55;4.90;99.90
9658;DHT22;4867;48.112;11.622;2022-11-20T17:51:24;4.90;99.90
9658;DHT22;4867;48.112;11.622;2022-11-20T17:53:55;4.90;99.90
9658;DHT22;4867;48.112;11.622;2022-11-20T17:56:22;4.80;99.90